Airfield :
LOGIN :

Register | Disclaimer

   EN    FR    IT 

 










Legend :    VFR   Marginal VFR   IFR   Intensive IFR   Very Intensive IFR
Visi :
Ceiling :
>= 8 km
>= 3000ft
5 to 8 km
1000 to 3000 ft
1500m to 5 km
500 to 1000 ft
800 to 1500m
200 to 500 ft
< 800m
< 200 ft
Symbols :   Thunderstorms  Fog  Heavy snow  Heavy precipitations  Wind > 20 kt
SIGMETs :     Misc.  Thunderstorms  Icing  Turbulence  Mountain Waves  Volcanic Ashes







- Airport Elevation : 268 ft
- IATA code : BFS
- Download approach charts


EGAA - Belfast Aldergrove

CURRENT METAR :
  • 141450Z 27008KT 9999 FEW021 05/04 Q0984

EXPIRED METARs :
  • 141420Z 27008KT 9999 SCT019 05/04 Q0984
  • 141350Z 27010KT 9999 SCT024 04/04 Q0983
  • 141320Z 27010KT 9999 FEW005 SCT015 04/04 Q0983
  • 141250Z 26012KT 9999 FEW005 SCT015 04/03 Q0983
  • 141220Z 24013KT 9999 SCT005 BKN014 03/03 Q0982 RERA
  • 141150Z 24013KT 9999 -SHRA FEW005 SCT008 BKN013 03/03 Q0982 RESN

TAF TAF EGAA
Valid from the 14 at 12:00 until the 15 at 12:00 UTC


141104Z 1412/1512 23015G25KT 9999 FEW010 SCT025
BECMG 1412/1415 30012KT
TEMPO 1412/1424 5000 SHRA BKN012
PROB30
TEMPO 1412/1424 BKN007
BECMG 1416/1419 29015G25KT
TEMPO 1419/1501 32020G35KT
PROB30
TEMPO 1500/1512 7000 SHRA BKN010
BECMG 1501/1504 35014KT
No reported NOTAMs for that airfield.



MET'MAP, your aeronautical weather chart ! - Copyright ORBIFLY December 2007 - Disclaimer

ORBIFLY MET'MAP TEAM :

Programming & Development : Alexandra Zaïnal
Concept & Development : Baudouin d'Aumeries
Co-Development & Prog : Marc-Olivier Méhu
Technical & hardware support : Manuel Goepfert

Contact : metmap@orbifly.com




SOURCES & CREDITS :

   NOAA